createdAt,value
2018-12-13T00:00:53.762Z,0.90
2018-12-13T00:03:27.891Z,0.80
2018-12-13T00:06:02.399Z,0.80
2018-12-13T00:08:36.606Z,0.80
2018-12-13T00:11:10.479Z,0.70
2018-12-13T00:13:45.167Z,0.60
2018-12-13T00:16:19.389Z,0.60
2018-12-13T00:18:53.588Z,0.60
2018-12-13T00:21:27.524Z,0.60
2018-12-13T00:24:01.882Z,0.60
2018-12-13T00:26:36.728Z,0.60
2018-12-13T00:29:15.122Z,0.60
2018-12-13T00:31:49.086Z,0.60
2018-12-13T00:34:22.924Z,0.60
2018-12-13T00:36:57.108Z,0.60
2018-12-13T00:39:35.353Z,0.50
2018-12-13T00:42:09.344Z,0.50
2018-12-13T00:44:43.534Z,0.50
2018-12-13T00:47:17.504Z,0.50
2018-12-13T00:49:51.674Z,0.50
2018-12-13T00:52:25.864Z,0.50
2018-12-13T00:57:33.005Z,0.60
2018-12-13T01:00:08.222Z,0.60
2018-12-13T01:02:44.284Z,0.60
2018-12-13T01:05:18.730Z,0.50
2018-12-13T01:07:52.726Z,0.50
2018-12-13T01:10:26.930Z,0.50
2018-12-13T01:13:00.912Z,0.40
2018-12-13T01:15:39.094Z,0.40
2018-12-13T01:18:13.105Z,0.40
2018-12-13T01:20:47.103Z,0.40
2018-12-13T01:23:21.089Z,0.40
2018-12-13T01:25:54.965Z,0.50
2018-12-13T01:28:28.873Z,0.50
2018-12-13T01:31:03.054Z,0.50
2018-12-13T01:33:37.388Z,0.50
2018-12-13T01:36:15.312Z,0.40
2018-12-13T01:38:53.754Z,0.40
2018-12-13T01:41:27.838Z,0.40
2018-12-13T01:44:05.971Z,0.30
2018-12-13T01:46:39.977Z,0.30
2018-12-13T01:49:14.031Z,0.20
2018-12-13T01:51:48.124Z,0.20
2018-12-13T01:54:22.169Z,0.20
2018-12-13T02:12:09.559Z,-0.20
2018-12-13T02:14:43.565Z,-0.30
2018-12-13T02:17:17.640Z,-0.30
2018-12-13T02:19:51.836Z,-0.30
2018-12-13T02:22:25.743Z,-0.30
2018-12-13T02:24:59.622Z,-0.30
2018-12-13T02:27:33.907Z,-0.30
2018-12-13T02:30:08.909Z,-0.20
2018-12-13T02:32:43.626Z,-0.30
2018-12-13T02:35:18.045Z,-0.30
2018-12-13T02:37:52.061Z,-0.30
2018-12-13T02:40:26.067Z,-0.30
2018-12-13T02:43:00.151Z,-0.40
2018-12-13T02:45:34.369Z,-0.40
2018-12-13T02:48:08.552Z,-0.30
2018-12-13T02:50:42.535Z,-0.30
2018-12-13T02:53:16.506Z,-0.20
2018-12-13T02:55:50.544Z,-0.30
2018-12-13T02:58:29.314Z,-0.40
2018-12-13T03:01:03.694Z,-0.40
2018-12-13T03:03:37.590Z,-0.40
2018-12-13T03:06:11.740Z,-0.40
2018-12-13T03:08:45.745Z,-0.40
2018-12-13T03:11:20.039Z,-0.50
2018-12-13T03:13:58.503Z,-0.50
2018-12-13T03:16:33.126Z,-0.50
2018-12-13T03:19:07.514Z,-0.40
2018-12-13T03:21:41.547Z,-0.40
2018-12-13T03:24:15.425Z,-0.40
2018-12-13T03:26:49.595Z,-0.50
2018-12-13T03:29:23.559Z,-0.50
2018-12-13T03:31:57.516Z,-0.60
2018-12-13T03:34:31.632Z,-0.50
2018-12-13T03:37:05.436Z,-0.50
2018-12-13T03:39:39.599Z,-0.50
2018-12-13T03:42:14.344Z,-0.40
2018-12-13T03:44:48.856Z,-0.50
2018-12-13T03:47:22.799Z,-0.50
2018-12-13T03:49:57.299Z,-0.50
2018-12-13T03:52:31.622Z,-0.50
2018-12-13T03:55:05.865Z,-0.50
2018-12-13T03:57:40.647Z,-0.60
2018-12-13T04:00:14.576Z,-0.50
2018-12-13T04:02:48.623Z,-0.60
2018-12-13T04:05:22.703Z,-0.60
2018-12-13T04:07:57.582Z,-0.60
2018-12-13T04:10:32.355Z,-0.60
2018-12-13T04:13:06.185Z,-0.70
2018-12-13T04:15:44.162Z,-0.80
2018-12-13T04:18:18.720Z,-0.80
2018-12-13T04:20:52.763Z,-0.80
2018-12-13T04:23:26.739Z,-0.90
2018-12-13T04:26:01.823Z,-0.90
2018-12-13T04:28:36.053Z,-0.90
2018-12-13T04:31:10.008Z,-0.90
2018-12-13T04:33:43.899Z,-0.90
2018-12-13T04:36:18.606Z,-0.90
2018-12-13T04:38:53.120Z,-0.80
2018-12-13T04:41:26.982Z,-0.80
2018-12-13T04:44:01.071Z,-0.90
2018-12-13T04:46:35.270Z,-0.90
2018-12-13T04:49:10.000Z,-0.90
2018-12-13T04:51:43.848Z,-1.00
2018-12-13T04:54:17.825Z,-1.00
2018-12-13T04:56:51.734Z,-1.10
2018-12-13T04:59:25.943Z,-1.10
2018-12-13T05:02:03.927Z,-1.10
2018-12-13T05:04:37.902Z,-1.10
2018-12-13T05:07:16.294Z,-1.10
2018-12-13T05:09:51.047Z,-1.10
2018-12-13T05:12:26.012Z,-1.00
2018-12-13T05:15:00.030Z,-1.00
2018-12-13T05:17:34.949Z,-1.10
2018-12-13T05:20:13.278Z,-1.10
2018-12-13T05:22:47.956Z,-1.10
2018-12-13T05:25:21.882Z,-1.10
2018-12-13T05:27:56.071Z,-1.10
2018-12-13T05:30:30.218Z,-1.20
2018-12-13T05:33:04.349Z,-1.20
2018-12-13T05:35:42.413Z,-1.10
2018-12-13T05:38:20.752Z,-1.20
2018-12-13T05:40:55.806Z,-1.10
2018-12-13T05:43:33.799Z,-1.10
2018-12-13T05:46:07.903Z,-1.20
2018-12-13T05:48:42.346Z,-1.00
2018-12-13T05:51:17.021Z,-1.00
2018-12-13T05:53:55.100Z,-0.90
2018-12-13T05:56:29.341Z,-0.90
2018-12-13T05:59:03.562Z,-0.90
2018-12-13T06:01:38.538Z,-0.80
2018-12-13T06:04:13.468Z,-0.80
2018-12-13T06:06:48.004Z,-0.80
2018-12-13T06:09:22.747Z,-0.80
2018-12-13T06:11:57.048Z,-0.70
2018-12-13T06:14:31.428Z,-0.70
2018-12-13T06:17:05.639Z,-0.70
2018-12-13T06:19:43.861Z,-0.70
2018-12-13T06:22:18.487Z,-0.70
2018-12-13T06:24:52.551Z,-0.70
2018-12-13T06:27:26.778Z,-0.60
2018-12-13T06:30:07.230Z,-0.70
2018-12-13T06:32:36.984Z,-0.60
2018-12-13T06:35:10.980Z,-0.60
2018-12-13T06:37:44.944Z,-0.50
2018-12-13T06:40:18.963Z,-0.50
2018-12-13T06:42:52.976Z,-0.50
2018-12-13T06:45:27.278Z,-0.60
2018-12-13T06:48:01.241Z,-0.50
2018-12-13T06:50:35.226Z,-0.50
2018-12-13T06:53:10.219Z,-0.40
2018-12-13T06:55:45.083Z,-0.30
2018-12-13T06:58:19.293Z,-0.20
2018-12-13T07:00:53.314Z,-0.20
2018-12-13T07:03:28.078Z,-0.30
2018-12-13T07:06:02.779Z,-0.30
2018-12-13T07:08:37.422Z,-0.30
2018-12-13T07:11:12.222Z,-0.20
2018-12-13T07:13:46.235Z,-0.20
2018-12-13T07:16:20.459Z,-0.20
2018-12-13T07:18:54.557Z,-0.20
2018-12-13T07:21:28.843Z,-0.20
2018-12-13T07:24:06.996Z,-0.10
2018-12-13T07:26:41.895Z,-0.10
2018-12-13T07:29:24.185Z,-0.10
2018-12-13T07:31:59.043Z,-0.10
2018-12-13T07:34:33.293Z,-0.10
2018-12-13T07:37:07.836Z,0.00
2018-12-13T07:39:42.013Z,0.00
2018-12-13T07:42:16.211Z,0.10
2018-12-13T07:44:50.348Z,0.10
2018-12-13T07:47:24.427Z,0.10
2018-12-13T07:49:58.421Z,0.20
2018-12-13T07:52:32.564Z,0.20
2018-12-13T07:55:06.948Z,0.20
2018-12-13T07:57:41.261Z,0.30
2018-12-13T08:00:15.628Z,0.40
2018-12-13T08:02:49.739Z,0.40
2018-12-13T08:05:23.840Z,0.30
2018-12-13T08:07:58.456Z,0.20
2018-12-13T08:10:33.097Z,0.20
2018-12-13T08:13:07.487Z,0.20
2018-12-13T08:15:46.348Z,0.30
2018-12-13T08:18:20.435Z,0.20
2018-12-13T08:20:55.257Z,0.20
2018-12-13T08:26:02.759Z,0.30
2018-12-13T08:28:37.793Z,0.30
2018-12-13T08:31:12.008Z,0.20
2018-12-13T08:33:46.142Z,0.20
2018-12-13T08:36:21.020Z,0.20
2018-12-13T08:38:59.165Z,0.20
2018-12-13T08:41:38.092Z,0.20
2018-12-13T08:44:12.739Z,0.10
2018-12-13T08:46:47.683Z,0.10
2018-12-13T08:49:22.465Z,0.10
2018-12-13T08:51:56.806Z,0.10
2018-12-13T08:54:31.119Z,0.20
2018-12-13T08:57:05.315Z,0.20
2018-12-13T08:59:39.480Z,0.20
2018-12-13T09:02:14.117Z,0.20
2018-12-13T09:04:48.975Z,0.20
2018-12-13T09:07:22.926Z,0.30
2018-12-13T09:09:56.960Z,0.30
2018-12-13T09:12:31.383Z,0.30
2018-12-13T09:15:05.949Z,0.30
2018-12-13T09:17:40.687Z,0.40
2018-12-13T09:20:15.047Z,0.40
2018-12-13T09:22:49.644Z,0.50
2018-12-13T09:25:24.028Z,0.50
2018-12-13T09:27:58.910Z,0.40
2018-12-13T09:30:33.138Z,0.40
2018-12-13T09:33:08.146Z,0.50
2018-12-13T09:35:42.082Z,0.50
2018-12-13T09:38:16.341Z,0.50
2018-12-13T09:40:51.099Z,0.70
2018-12-13T09:43:26.018Z,0.70
2018-12-13T09:46:00.578Z,0.60
2018-12-13T09:48:34.593Z,0.60
2018-12-13T09:51:09.211Z,0.60
2018-12-13T09:53:43.262Z,0.50
2018-12-13T09:56:17.561Z,0.50
2018-12-13T09:58:51.546Z,0.40
2018-12-13T10:01:29.610Z,0.40
2018-12-13T10:04:03.953Z,0.40
2018-12-13T10:06:38.112Z,0.50
2018-12-13T10:09:12.149Z,0.50
2018-12-13T10:11:46.000Z,0.50
2018-12-13T10:14:24.225Z,0.40
2018-12-13T10:16:59.312Z,0.40
2018-12-13T10:19:34.246Z,0.40
2018-12-13T10:22:11.839Z,0.40
2018-12-13T10:24:45.531Z,0.50
2018-12-13T10:27:20.366Z,0.40
2018-12-13T10:29:58.644Z,0.40
2018-12-13T10:32:33.447Z,0.60
2018-12-13T10:35:11.314Z,0.60
2018-12-13T10:37:44.029Z,0.60
2018-12-13T10:40:18.480Z,0.70
2018-12-13T10:42:53.109Z,0.70
2018-12-13T10:45:27.217Z,0.80
2018-12-13T10:48:01.617Z,0.80
2018-12-13T10:50:35.931Z,0.80
2018-12-13T10:53:09.895Z,0.70
2018-12-13T10:55:44.150Z,0.70
2018-12-13T10:58:18.632Z,0.70
2018-12-13T11:00:57.618Z,0.80
2018-12-13T11:03:36.523Z,0.70
2018-12-13T11:06:10.829Z,0.70
2018-12-13T11:08:44.707Z,0.60
2018-12-13T11:11:22.650Z,0.70
2018-12-13T11:13:57.491Z,0.60
2018-12-13T11:16:32.115Z,0.50
2018-12-13T11:19:06.415Z,0.50
2018-12-13T11:21:40.306Z,0.60
2018-12-13T11:24:14.551Z,0.60
2018-12-13T11:26:50.033Z,0.60
2018-12-13T11:29:40.778Z,0.50
2018-12-13T11:32:16.135Z,0.40
2018-12-13T11:34:55.753Z,0.50
2018-12-13T11:37:30.255Z,0.50
2018-12-13T11:40:05.123Z,0.60
2018-12-13T11:42:40.005Z,0.60
2018-12-13T11:45:13.952Z,0.60
2018-12-13T11:47:48.057Z,0.60
2018-12-13T11:50:22.168Z,0.60
2018-12-13T11:53:00.934Z,0.70
2018-12-13T11:55:41.506Z,0.70
2018-12-13T11:58:17.844Z,0.80
2018-12-13T12:40:02.882Z,0.40
2018-12-13T12:42:37.431Z,0.40
2018-12-13T12:45:15.879Z,0.50
2018-12-13T12:47:50.066Z,0.50
2018-12-13T12:50:24.410Z,0.50
2018-12-13T12:52:58.278Z,0.50
2018-12-13T12:55:32.260Z,0.50
2018-12-13T12:58:06.422Z,0.50
2018-12-13T13:00:40.723Z,0.50
2018-12-13T13:03:14.618Z,0.50
2018-12-13T13:05:48.662Z,0.50
2018-12-13T13:08:22.690Z,0.50
2018-12-13T13:10:56.895Z,0.50
2018-12-13T13:13:30.766Z,0.50
2018-12-13T13:16:04.921Z,0.40
2018-12-13T13:18:39.230Z,0.40
2018-12-13T13:21:13.584Z,0.40
2018-12-13T13:23:47.667Z,0.40
2018-12-13T13:26:21.915Z,0.40
2018-12-13T13:28:56.824Z,0.40
2018-12-13T13:31:31.056Z,0.40
2018-12-13T13:34:05.604Z,0.30
2018-12-13T13:36:39.671Z,0.30
2018-12-13T13:39:14.005Z,0.30
2018-12-13T13:41:48.810Z,0.40
2018-12-13T13:44:25.146Z,0.30
2018-12-13T13:46:59.402Z,0.40
2018-12-13T13:49:37.801Z,0.30
2018-12-13T13:52:16.048Z,0.30
2018-12-13T13:54:50.774Z,0.20
2018-12-13T13:57:25.275Z,0.20
2018-12-13T14:00:00.005Z,0.30
2018-12-13T14:02:38.722Z,0.20
2018-12-13T14:05:14.053Z,0.20
2018-12-13T14:07:48.734Z,0.20
2018-12-13T14:10:22.860Z,0.30
2018-12-13T14:12:56.973Z,0.20
2018-12-13T14:15:31.064Z,0.20
2018-12-13T14:18:10.364Z,0.20
2018-12-13T14:20:44.478Z,0.20
2018-12-13T14:23:18.991Z,0.30
2018-12-13T14:25:57.824Z,0.20
2018-12-13T14:28:36.049Z,0.10
2018-12-13T14:31:14.406Z,0.10
2018-12-13T14:33:52.298Z,0.10
2018-12-13T14:36:26.717Z,0.00
2018-12-13T14:39:02.236Z,0.00
2018-12-13T14:41:36.513Z,0.00
2018-12-13T14:44:10.761Z,0.00
2018-12-13T14:46:44.647Z,0.00
2018-12-13T14:49:19.611Z,0.00
2018-12-13T14:51:54.186Z,0.00
2018-12-13T14:54:28.387Z,0.10
2018-12-13T14:57:02.491Z,0.10
2018-12-13T14:59:46.958Z,0.10
2018-12-13T15:02:18.614Z,0.10
2018-12-13T15:04:53.441Z,0.00
2018-12-13T15:07:29.125Z,0.00
2018-12-13T15:10:03.923Z,0.10
2018-12-13T15:12:38.680Z,0.00
2018-12-13T15:15:13.199Z,0.00
2018-12-13T15:17:52.019Z,0.00
2018-12-13T15:20:31.780Z,0.00
2018-12-13T15:23:06.010Z,0.00
2018-12-13T15:25:40.253Z,0.00
2018-12-13T15:28:18.299Z,0.00
2018-12-13T15:30:52.486Z,-0.10
2018-12-13T15:33:26.834Z,-0.10
2018-12-13T15:36:00.734Z,-0.10
2018-12-13T15:38:35.167Z,-0.10
2018-12-13T15:41:13.356Z,-0.10
2018-12-13T15:43:47.528Z,-0.10
2018-12-13T15:46:21.642Z,-0.10
2018-12-13T15:48:55.832Z,-0.10
2018-12-13T15:51:30.807Z,-0.10
2018-12-13T15:54:04.695Z,-0.10
2018-12-13T15:56:39.523Z,-0.10
2018-12-13T15:59:14.507Z,-0.20
2018-12-13T16:01:48.448Z,-0.10
2018-12-13T16:04:23.409Z,-0.10
2018-12-13T16:06:57.542Z,-0.10
2018-12-13T16:09:31.422Z,-0.20
2018-12-13T16:12:05.930Z,-0.20
2018-12-13T16:14:44.709Z,-0.20
2018-12-13T16:17:18.798Z,-0.20
2018-12-13T16:19:52.764Z,-0.20
2018-12-13T16:22:26.919Z,-0.10
2018-12-13T16:25:05.266Z,-0.20
2018-12-13T16:27:39.202Z,-0.20
2018-12-13T16:30:13.597Z,-0.20
2018-12-13T16:32:47.480Z,-0.20
2018-12-13T16:35:21.745Z,-0.10
2018-12-13T16:37:55.715Z,-0.10
2018-12-13T16:40:29.937Z,-0.10
2018-12-13T16:43:03.909Z,-0.10
2018-12-13T16:45:38.859Z,0.00
2018-12-13T16:48:13.740Z,0.00
2018-12-13T16:50:52.281Z,-0.10
2018-12-13T16:53:30.962Z,-0.30
2018-12-13T16:56:05.837Z,-0.30
2018-12-13T16:58:39.858Z,-0.20
2018-12-13T17:01:19.933Z,-0.20
2018-12-13T17:03:55.182Z,-0.20
2018-12-13T17:06:29.660Z,-0.20
2018-12-13T17:09:05.642Z,-0.30
2018-12-13T17:11:39.946Z,-0.30
2018-12-13T17:14:14.770Z,-0.30
2018-12-13T17:16:49.127Z,-0.20
2018-12-13T17:19:24.231Z,-0.20
2018-12-13T17:21:59.237Z,-0.10
2018-12-13T17:24:34.612Z,-0.20
2018-12-13T17:27:09.560Z,-0.20
2018-12-13T17:29:43.670Z,-0.10
2018-12-13T17:32:17.833Z,-0.10
2018-12-13T17:34:53.092Z,-0.20
2018-12-13T17:37:27.817Z,-0.20
2018-12-13T17:40:02.786Z,-0.30
2018-12-13T17:42:37.927Z,-0.30
2018-12-13T17:45:12.114Z,-0.40
2018-12-13T17:47:46.261Z,-0.30
2018-12-13T17:50:21.730Z,-0.40
2018-12-13T17:52:56.415Z,-0.40
2018-12-13T17:55:31.028Z,-0.30
2018-12-13T17:58:05.848Z,-0.30
2018-12-13T18:00:40.063Z,-0.30
2018-12-13T18:03:14.888Z,-0.40
2018-12-13T18:05:49.120Z,-0.40
2018-12-13T18:08:24.066Z,-0.40
2018-12-13T18:10:58.473Z,-0.40
2018-12-13T18:13:33.335Z,-0.40
2018-12-13T18:16:07.434Z,-0.40
2018-12-13T18:18:41.648Z,-0.40
2018-12-13T18:21:15.968Z,-0.30
2018-12-13T18:23:50.116Z,-0.40
2018-12-13T18:26:28.305Z,-0.30
2018-12-13T18:29:02.680Z,-0.30
2018-12-13T18:31:36.802Z,-0.30
2018-12-13T18:34:11.619Z,-0.30
2018-12-13T18:36:46.083Z,-0.30
2018-12-13T18:39:24.088Z,-0.30
2018-12-13T18:41:58.463Z,-0.30
2018-12-13T18:44:32.890Z,-0.30
2018-12-13T18:47:07.918Z,-0.30
2018-12-13T18:49:42.282Z,-0.20
2018-12-13T18:52:17.421Z,-0.20
2018-12-13T18:54:51.388Z,-0.20
2018-12-13T18:57:25.562Z,-0.20
2018-12-13T18:59:59.512Z,-0.20
2018-12-13T19:02:34.096Z,-0.20
2018-12-13T19:05:08.806Z,-0.10
2018-12-13T19:07:43.794Z,-0.10
2018-12-13T19:10:17.984Z,-0.10
2018-12-13T19:12:52.839Z,-0.20
2018-12-13T19:15:27.727Z,-0.20
2018-12-13T19:18:01.799Z,-0.20
2018-12-13T19:20:36.102Z,-0.20
2018-12-13T19:23:11.136Z,-0.20
2018-12-13T19:25:45.855Z,-0.20
2018-12-13T19:28:21.231Z,-0.20
2018-12-13T19:30:55.426Z,-0.20
2018-12-13T19:33:29.567Z,-0.20
2018-12-13T19:36:03.627Z,-0.10
2018-12-13T19:38:37.590Z,-0.10
2018-12-13T19:41:12.683Z,-0.10
2018-12-13T19:43:49.404Z,-0.10
2018-12-13T19:46:23.916Z,0.00
2018-12-13T19:48:58.253Z,0.00
2018-12-13T19:51:32.866Z,0.00
2018-12-13T19:54:06.875Z,0.10
2018-12-13T19:56:41.077Z,0.10
2018-12-13T19:59:16.681Z,0.00
2018-12-13T20:01:50.723Z,0.00
2018-12-13T20:04:25.758Z,0.10
2018-12-13T20:06:59.958Z,0.10
2018-12-13T20:09:33.948Z,0.10
2018-12-13T20:12:08.100Z,0.10
2018-12-13T20:14:42.106Z,0.20
2018-12-13T20:17:16.387Z,0.20
2018-12-13T20:19:55.178Z,0.20
2018-12-13T20:22:29.420Z,0.20
2018-12-13T20:25:03.735Z,0.20
2018-12-13T20:27:38.410Z,0.10
2018-12-13T20:30:18.279Z,0.10
2018-12-13T20:32:56.509Z,0.10
2018-12-13T20:35:30.577Z,0.10
2018-12-13T20:38:05.430Z,0.10
2018-12-13T20:40:40.337Z,0.10
2018-12-13T20:43:19.368Z,0.10
2018-12-13T20:45:54.066Z,0.10
2018-12-13T20:48:29.205Z,0.10
2018-12-13T20:51:08.824Z,0.10
2018-12-13T20:53:43.657Z,0.00
2018-12-13T21:03:56.049Z,0.20
2018-12-13T21:06:30.232Z,0.20
2018-12-13T21:09:08.195Z,0.20
2018-12-13T21:11:49.383Z,0.20
2018-12-13T21:14:23.507Z,0.20
2018-12-13T21:17:00.075Z,0.20
2018-12-13T21:19:34.391Z,0.40
2018-12-13T21:22:08.563Z,0.50
2018-12-13T21:24:42.679Z,0.40
2018-12-13T21:27:17.017Z,0.30
2018-12-13T21:29:51.028Z,0.20
2018-12-13T21:32:25.288Z,0.20
2018-12-13T21:35:00.126Z,0.20
2018-12-13T21:37:38.742Z,0.30
2018-12-13T21:40:16.784Z,0.30
2018-12-13T21:42:50.899Z,0.20
2018-12-13T21:45:25.822Z,0.20
2018-12-13T21:48:04.855Z,0.10
2018-12-13T21:50:39.664Z,0.10
2018-12-13T21:53:13.545Z,0.10
2018-12-13T21:55:48.073Z,0.10
2018-12-13T21:58:29.292Z,0.10
2018-12-13T22:01:03.323Z,0.20
2018-12-13T22:03:37.377Z,0.20
2018-12-13T22:08:43.795Z,0.20
2018-12-13T22:11:20.010Z,0.20
2018-12-13T22:13:58.107Z,0.10
2018-12-13T22:16:36.070Z,0.10
2018-12-13T22:19:14.009Z,0.10
2018-12-13T22:21:48.486Z,0.10
2018-12-13T22:24:30.491Z,0.10
2018-12-13T22:27:04.431Z,0.10
2018-12-13T22:29:38.953Z,0.10
2018-12-13T22:32:13.145Z,0.20
2018-12-13T22:34:48.287Z,0.20
2018-12-13T22:37:23.135Z,0.20
2018-12-13T22:39:57.217Z,0.20
2018-12-13T22:42:31.581Z,0.20
2018-12-13T22:45:07.622Z,0.30
2018-12-13T22:47:42.840Z,0.50
2018-12-13T22:50:18.233Z,0.60
2018-12-13T22:52:53.530Z,0.50
2018-12-13T22:55:31.770Z,0.30
2018-12-13T22:58:11.212Z,0.40
2018-12-13T23:00:45.995Z,0.30
2018-12-13T23:03:19.840Z,0.40
2018-12-13T23:05:53.727Z,0.30
2018-12-13T23:08:28.026Z,0.20
2018-12-13T23:28:55.437Z,0.00
2018-12-13T23:31:29.932Z,0.00
2018-12-13T23:34:04.482Z,0.00
2018-12-13T23:36:38.903Z,0.00
2018-12-13T23:39:12.875Z,0.00
2018-12-13T23:41:47.342Z,0.00
2018-12-13T23:44:22.333Z,-0.10
2018-12-13T23:47:00.123Z,-0.10
2018-12-13T23:49:35.560Z,0.00
2018-12-13T23:52:10.742Z,0.00
2018-12-13T23:54:52.618Z,0.00
2018-12-13T23:57:26.711Z,0.00
